Главная страница
METAR-TAF:

METAR-TAF

Аэропорты :

Beaver Creek, Юкон, Канада

широта: 62-25N, долгота: 140-52W, высота над уровнем моря: 649 м

Текущие метеонаблюдения

Эта сводка был подготовлена 1 час и 8 минут назад, в 18:00 UTC
Ветер 2 Узел переменных направлений
Температура 18°C
Влажность 42%
Давление 1022 hPa
Видимость: 48.3 км
небольшая облачность на высоте 3500 фута
Отдельные облака на высоте 10000 фута
Рассеянная облачность на высоте 17000 фута

METAR: CYXQ 191800Z VRB02KT 30SM FEW035 SCT100 BKN170 18/05 A3019 RMK CU1AC3AC2 SLP238 DENSITY ALT 2700FT

Время: 12:08 (19:08 UTC)


TAF: отсутствует

Метеонаблюдения и прогнозы для более 4000 аэропортов (сводки METAR и TAF).

Имеющиеся станции представлены на карте желтыми и красными точками.

Чтобы увидеть название станции, наведите на нее мышь.

Затем щелкните, чтобы увидеть метеонаблюдения и метеопрогнозы.

Управление картой: чтобы увеличить масштаб, щелкните зеленые кнопки с черным крестиком; чтобы уменьшить масштаб, щелкните зеленую кнопку с тире; для просмотра соседних карт щелкайте зеленые стрелки.


METAR-TAF: